Time;durP1;ratioP1;P1;durP2;ratioP2;P2;SDS_P1;SDS_P2;PMS_P1;PMS_P2;Temp;Humidity;BMP_temperature;BMP_pressure;BME280_temperature;BME280_humidity;BME280_pressure;Samples;Min_cycle;Max_cycle;Signal;HPM_P1;HPM_P2
2022/05/04 00:00:50;;;;;;;4.40;4.00;;;;;;;15.53;66.18;101415.44;5071395;28;20394;-85
2022/05/04 00:03:16;;;;;;;4.65;4.07;;;;;;;15.59;66.29;101419.22;5071798;28;20024;-84
2022/05/04 00:05:42;;;;;;;4.10;3.70;;;;;;;15.59;66.28;101416.59;5071015;28;20460;-84
2022/05/04 00:08:08;;;;;;;4.40;4.00;;;;;;;15.62;66.12;101421.09;5071226;28;20048;-84
2022/05/04 00:10:34;;;;;;;4.50;4.03;;;;;;;15.58;66.32;101421.81;5072253;28;20490;-85
2022/05/04 00:13:01;;;;;;;4.88;4.38;;;;;;;15.60;66.24;101421.06;5071622;28;20033;-85
2022/05/04 00:15:27;;;;;;;4.20;3.80;;;;;;;15.58;66.32;101417.44;5071445;28;20036;-85
2022/05/04 00:17:53;;;;;;;4.57;4.03;;;;;;;15.57;66.22;101420.91;5055430;28;20032;-84
2022/05/04 00:20:19;;;;;;;4.93;3.78;;;;;;;15.57;66.46;101412.09;5070975;28;20508;-84
2022/05/04 00:22:45;;;;;;;4.15;3.75;;;;;;;15.42;66.31;101396.53;5070779;28;20533;-85
2022/05/04 00:25:11;;;;;;;6.03;4.70;;;;;;;15.38;66.31;101386.72;5070650;28;20127;-85
2022/05/04 00:27:37;;;;;;;4.90;4.40;;;;;;;15.20;66.29;101360.50;5072443;28;20478;-85
2022/05/04 00:30:06;;;;;;;5.60;4.25;;;;;;;15.49;66.25;101409.13;5071720;28;20120;-84
2022/05/04 00:32:32;;;;;;;4.85;4.10;;;;;;;15.42;66.18;101404.44;5039768;28;20067;-85
2022/05/04 00:34:58;;;;;;;4.38;3.97;;;;;;;15.43;66.30;101407.16;5070842;28;20470;-84
2022/05/04 00:37:24;;;;;;;4.40;3.95;;;;;;;15.40;66.21;101409.63;5070734;28;20043;-85
2022/05/04 00:39:49;;;;;;;4.57;4.15;;;;;;;15.40;66.26;101411.38;5070475;28;20029;-85
2022/05/04 00:42:16;;;;;;;4.65;4.25;;;;;;;15.54;66.23;101427.78;5071838;28;20067;-85
2022/05/04 00:44:43;;;;;;;5.07;3.88;;;;;;;15.53;66.02;101428.59;5070359;28;20183;-85
2022/05/04 00:47:09;;;;;;;5.43;4.60;;;;;;;15.50;66.08;101424.09;5070908;28;20029;-85
2022/05/04 00:49:35;;;;;;;4.85;4.38;;;;;;;15.19;66.33;101377.97;5070335;28;20085;-83
2022/05/04 00:52:02;;;;;;;;;;;;;;;15.54;66.38;101428.69;5070762;28;20504;-86
2022/05/04 00:54:27;;;;;;;6.88;4.70;;;;;;;15.53;66.27;101432.13;5087231;28;19918;-85
2022/05/04 00:56:54;;;;;;;4.70;3.83;;;;;;;15.41;66.34;101418.44;5070380;28;20077;-84
2022/05/04 00:59:21;;;;;;;4.80;4.30;;;;;;;15.48;66.41;101429.28;5053448;28;20063;-84
2022/05/04 01:01:47;;;;;;;4.90;4.07;;;;;;;15.42;66.33;101422.84;5071199;28;20032;-85
2022/05/04 01:04:13;;;;;;;5.70;4.45;;;;;;;15.33;66.37;101390.88;5071764;28;20029;-85
2022/05/04 01:06:39;;;;;;;4.45;3.92;;;;;;;15.39;66.45;101417.47;5071745;28;20048;-84
2022/05/04 01:09:05;;;;;;;4.93;4.40;;;;;;;15.35;66.43;101400.63;5070817;28;20032;-84
2022/05/04 01:11:30;;;;;;;4.88;4.30;;;;;;;15.41;66.35;101419.34;5071724;28;20145;-85
2022/05/04 01:14:11;;;;;;;5.90;4.25;;;;;;;15.41;66.39;101419.34;5070571;28;20028;-85
2022/05/04 01:16:39;;;;;;;6.07;4.22;;;;;;;15.43;66.43;101416.75;5070749;28;20401;-85
2022/05/04 01:19:06;;;;;;;5.05;4.47;;;;;;;15.43;66.22;101411.47;5070328;28;20062;-85
2022/05/04 01:21:32;;;;;;;5.75;4.10;;;;;;;15.34;66.26;101392.66;5070606;28;20020;-84
2022/05/04 01:23:58;;;;;;;;;;;;;;;15.50;66.38;101420.56;5070946;28;20033;-84
2022/05/04 01:26:23;;;;;;;4.85;4.10;;;;;;;15.35;66.38;101403.28;5071762;28;19915;-85
2022/05/04 01:28:49;;;;;;;4.57;4.07;;;;;;;15.46;66.44;101430.97;5070420;28;20032;-84
2022/05/04 01:31:15;;;;;;;5.15;4.13;;;;;;;15.46;66.36;101428.31;5070293;28;20090;-85
2022/05/04 01:33:41;;;;;;;5.22;4.20;;;;;;;15.47;66.39;101426.59;5071099;28;20028;-85
2022/05/04 01:36:07;;;;;;;4.60;4.20;;;;;;;15.38;66.30;101413.03;5070377;28;20028;-85
2022/05/04 01:38:34;;;;;;;5.82;3.85;;;;;;;15.44;66.41;101426.47;5070342;28;20035;-84
2022/05/04 01:41:00;;;;;;;4.40;4.00;;;;;;;15.32;66.24;101400.47;5070214;28;20039;-84
2022/05/04 01:43:26;;;;;;;4.38;3.97;;;;;;;15.27;66.09;101404.66;5070133;28;20025;-85
2022/05/04 01:45:52;;;;;;;4.63;4.00;;;;;;;15.40;66.30;101424.53;5071385;28;20036;-84
2022/05/04 01:48:44;;;;;;;4.95;4.40;;;;;;;15.45;66.46;101433.50;5071324;28;20024;-84
2022/05/04 01:51:09;;;;;;;4.65;3.95;;;;;;;15.35;66.42;101410.28;5081111;28;20054;-85
2022/05/04 01:53:35;;;;;;;5.43;3.65;;;;;;;15.31;66.59;101421.50;5070798;28;20028;-84
2022/05/04 01:56:02;;;;;;;4.70;4.25;;;;;;;15.33;66.46;101423.34;5069921;28;20029;-85
2022/05/04 01:58:28;;;;;;;5.00;4.15;;;;;;;15.23;66.48;101405.34;5070031;28;20115;-84
2022/05/04 02:00:54;;;;;;;6.03;4.60;;;;;;;15.25;66.48;101411.56;5069082;28;20123;-85
2022/05/04 02:03:19;;;;;;;4.57;4.07;;;;;;;15.39;66.40;101431.53;5069915;28;20033;-85
2022/05/04 02:05:45;;;;;;;4.95;4.43;;;;;;;15.23;66.35;101413.22;5072496;28;20024;-85
2022/05/04 02:08:11;;;;;;;4.25;3.85;;;;;;;15.05;66.27;101377.38;5075145;28;20489;-85
2022/05/04 02:10:37;;;;;;;5.15;4.65;;;;;;;15.24;66.43;101413.31;5058147;28;20025;-85
2022/05/04 02:13:02;;;;;;;4.75;4.25;;;;;;;15.41;66.24;101444.75;5074880;28;20024;-84
2022/05/04 02:15:28;;;;;;;4.88;4.20;;;;;;;15.32;66.23;101424.16;5073746;28;20553;-84
2022/05/04 02:17:54;;;;;;;5.30;4.45;;;;;;;15.39;66.37;101447.31;5074902;28;20418;-84
2022/05/04 02:20:19;;;;;;;4.82;4.43;;;;;;;15.22;66.27;101419.34;5073635;28;20074;-84
2022/05/04 02:22:45;;;;;;;4.80;4.38;;;;;;;15.23;66.28;101429.03;5074519;28;20024;-85
2022/05/04 02:25:11;;;;;;;6.40;4.63;;;;;;;15.19;66.27;101419.19;5073507;28;20174;-85
2022/05/04 02:27:36;;;;;;;4.65;4.25;;;;;;;15.37;66.31;101455.97;5073589;28;20489;-85
2022/05/04 02:30:02;;;;;;;4.93;4.30;;;;;;;15.29;66.35;101434.56;5074430;28;20032;-86
2022/05/04 02:32:28;;;;;;;5.18;4.55;;;;;;;15.32;66.31;101447.84;5072859;28;20097;-86
2022/05/04 02:37:56;;;;;;;4.38;3.97;;;;;;;15.29;66.42;101445.09;5058231;28;20170;-85
2022/05/04 02:40:22;;;;;;;5.50;4.10;;;;;;;15.34;66.37;101459.34;5074764;28;20543;-85
2022/05/04 02:42:47;;;;;;;4.97;4.43;;;;;;;15.32;66.42;101460.13;5072883;28;20033;-85
2022/05/04 02:45:14;;;;;;;4.55;4.15;;;;;;;15.18;66.42;101438.44;5073940;28;20043;-85
2022/05/04 02:47:40;;;;;;;4.47;4.07;;;;;;;15.34;66.42;101466.34;5056678;28;20111;-85
2022/05/04 02:50:07;;;;;;;4.95;4.05;;;;;;;15.24;66.57;101449.25;5073223;28;20056;-85
2022/05/04 02:52:33;;;;;;;4.97;4.47;;;;;;;15.10;66.29;101429.31;5056294;28;20029;-85
2022/05/04 02:54:58;;;;;;;4.95;4.45;;;;;;;15.33;66.49;101469.81;5056314;28;20029;-85
2022/05/04 02:57:24;;;;;;;4.68;4.22;;;;;;;15.20;66.45;101460.47;5074226;28;20063;-85
2022/05/04 02:59:50;;;;;;;5.35;4.00;;;;;;;14.92;66.40;101405.66;5073014;28;20020;-85
2022/05/04 03:02:27;;;;;;;6.38;4.32;;;;;;;14.98;66.30;101411.22;5073050;28;20033;-85
2022/05/04 03:05:01;;;;;;;5.03;4.20;;;;;;;15.21;66.46;101454.38;5073077;28;20098;-85
2022/05/04 03:07:27;;;;;;;4.63;4.07;;;;;;;15.33;66.40;101480.34;5073229;28;20025;-85
2022/05/04 03:09:56;;;;;;;5.93;4.10;;;;;;;15.13;66.43;101464.53;5051939;28;20040;-84
2022/05/04 03:12:22;;;;;;;4.63;4.10;;;;;;;15.30;66.36;101491.63;5083929;28;20041;-85
2022/05/04 03:14:47;;;;;;;5.32;4.82;;;;;;;15.27;66.33;101492.38;5072534;28;20028;-85
2022/05/04 03:17:13;;;;;;;4.78;4.30;;;;;;;15.30;66.27;101491.63;5073271;28;20565;-85
2022/05/04 03:19:39;;;;;;;4.85;4.35;;;;;;;15.30;66.36;101495.97;5072352;28;20054;-85
2022/05/04 03:22:05;;;;;;;5.88;4.50;;;;;;;14.94;66.36;101433.81;5073836;28;20413;-85
2022/05/04 03:24:31;;;;;;;4.22;3.58;;;;;;;14.83;66.31;101420.16;5072368;28;20040;-85
2022/05/04 03:26:57;;;;;;;4.90;4.40;;;;;;;15.15;66.46;101478.66;5071959;28;20036;-85
2022/05/04 03:29:22;;;;;;;4.80;4.30;;;;;;;15.12;66.33;101475.00;5072593;28;20025;-85
2022/05/04 03:31:48;;;;;;;4.78;4.05;;;;;;;14.91;65.98;101443.31;5073139;28;20090;-84
2022/05/04 03:34:14;;;;;;;6.10;4.15;;;;;;;15.20;66.52;101494.66;5072228;28;20028;-85
2022/05/04 03:36:40;;;;;;;4.75;4.35;;;;;;;15.09;66.39;101483.66;5073144;28;20079;-85
2022/05/04 03:39:06;;;;;;;5.07;3.70;;;;;;;15.26;66.64;101513.34;5073373;28;20120;-85
2022/05/04 03:41:32;;;;;;;5.07;4.00;;;;;;;15.08;66.52;101476.56;5070745;28;20032;-85
2022/05/04 03:43:58;;;;;;;4.38;3.97;;;;;;;15.02;66.42;101469.28;5072038;28;20086;-85
2022/05/04 03:46:25;;;;;;;5.82;4.70;;;;;;;14.99;66.33;101473.50;5059293;28;20524;-85
2022/05/04 03:48:52;;;;;;;4.38;3.80;;;;;;;15.25;66.47;101514.19;5073409;28;20025;-84
2022/05/04 03:51:21;;;;;;;4.40;3.85;;;;;;;15.15;66.50;101498.81;5062861;28;21358;-84
2022/05/04 03:53:52;;;;;;;5.07;3.83;;;;;;;15.25;66.47;101524.72;5069970;28;20111;-85
2022/05/04 03:56:19;;;;;;;4.70;4.20;;;;;;;15.24;66.31;101525.56;5070645;28;20444;-85
2022/05/04 03:58:45;;;;;;;4.65;4.25;;;;;;;15.14;66.47;101505.81;5054025;28;20024;-85
2022/05/04 04:01:11;;;;;;;5.00;4.18;;;;;;;15.23;66.46;101529.00;5070548;28;20055;-85
2022/05/04 04:03:38;;;;;;;4.28;3.88;;;;;;;14.93;66.51;101478.47;5071072;28;20045;-85
2022/05/04 04:06:03;;;;;;;5.45;4.13;;;;;;;15.16;66.46;101519.03;5070392;28;20037;-85
2022/05/04 04:08:30;;;;;;;4.53;4.10;;;;;;;15.22;66.66;101533.38;5070311;28;20040;-85
2022/05/04 04:10:57;;;;;;;4.93;4.22;;;;;;;15.23;66.38;101534.28;5070253;28;20067;-85
2022/05/04 04:13:23;;;;;;;4.50;3.92;;;;;;;15.02;66.56;101508.72;5070618;28;20021;-85
2022/05/04 04:15:51;;;;;;;4.93;4.13;;;;;;;14.90;66.36;101484.50;5071690;28;20044;-86
2022/05/04 04:18:21;;;;;;;5.05;4.20;;;;;;;14.95;66.39;101496.13;5070365;28;20032;-86
2022/05/04 04:23:31;;;;;;;7.93;4.28;;;;;;;15.08;66.50;101526.56;5069367;28;20039;-86
2022/05/04 04:25:57;;;;;;;5.28;4.20;;;;;;;15.21;66.46;101547.34;5067984;28;20032;-86
2022/05/04 04:28:23;;;;;;;5.63;4.40;;;;;;;15.01;66.38;101525.34;5069684;28;20028;-86
2022/05/04 04:30:48;;;;;;;5.00;4.20;;;;;;;15.20;66.12;101557.81;5069772;28;20024;-86
2022/05/04 04:33:14;;;;;;;5.05;3.92;;;;;;;15.14;66.48;101542.63;5069674;28;20037;-86
2022/05/04 04:35:39;;;;;;;5.35;4.30;;;;;;;14.84;66.55;101493.00;5071363;28;20617;-86
2022/05/04 04:38:07;;;;;;;5.00;4.50;;;;;;;15.18;66.28;101551.59;5065888;28;20138;-86
2022/05/04 04:40:33;;;;;;;4.50;4.10;;;;;;;14.91;66.34;101509.06;5050567;28;20093;-86
2022/05/04 04:43:00;;;;;;;;;;;;;;;15.21;66.25;101551.72;5070459;28;20020;-84
2022/05/04 04:45:27;;;;;;;6.57;4.10;;;;;;;14.92;66.41;101509.16;5070547;28;19912;-87
2022/05/04 04:47:53;;;;;;;4.63;4.07;;;;;;;15.15;66.51;101547.03;5070661;28;20505;-88
2022/05/04 04:50:19;;;;;;;6.57;4.30;;;;;;;14.95;66.28;101513.66;5059144;28;20194;-90
2022/05/04 04:52:44;;;;;;;4.50;3.42;;;;;;;14.89;66.45;101502.84;5064756;28;20036;-87
2022/05/04 04:55:11;;;;;;;4.60;4.07;;;;;;;15.13;66.37;101543.44;5063567;28;20059;-85
2022/05/04 04:57:37;;;;;;;;;;;;;;;15.20;66.55;101544.66;5066721;28;20029;-85
2022/05/04 05:00:04;;;;;;;5.80;3.73;;;;;;;15.16;66.44;101542.72;5067636;28;19917;-86
2022/05/04 05:02:30;;;;;;;4.32;3.92;;;;;;;15.13;66.75;101546.06;5069151;28;20043;-85
2022/05/04 05:04:56;;;;;;;4.18;3.78;;;;;;;15.14;66.68;101552.25;5064915;28;20025;-86
2022/05/04 05:07:21;;;;;;;5.50;3.70;;;;;;;14.93;66.68;101524.09;5056062;28;20386;-86
2022/05/04 05:09:47;;;;;;;4.60;4.20;;;;;;;15.03;66.68;101535.97;5066894;28;20505;-85
2022/05/04 05:12:13;;;;;;;4.70;4.07;;;;;;;14.71;66.63;101482.72;5070428;28;20115;-85
2022/05/04 05:17:24;;;;;;;4.28;3.83;;;;;;;15.05;66.72;101529.94;5054169;28;20068;-85
2022/05/04 05:19:49;;;;;;;5.78;3.40;;;;;;;15.03;66.70;101522.81;5067213;28;20060;-84
2022/05/04 05:22:15;;;;;;;4.40;4.00;;;;;;;15.12;66.73;101544.28;5070754;28;20500;-85
2022/05/04 05:24:41;;;;;;;5.20;4.13;;;;;;;15.00;66.65;101525.28;5070764;28;20731;-85
2022/05/04 05:27:09;;;;;;;5.35;4.05;;;;;;;14.90;66.44;101508.16;5074257;28;20630;-85
2022/05/04 05:29:35;;;;;;;4.63;3.88;;;;;;;15.13;66.51;101551.34;5073776;28;20028;-85
2022/05/04 05:32:01;;;;;;;4.28;3.85;;;;;;;14.98;66.70;101525.19;5050003;28;20438;-85
2022/05/04 05:34:30;;;;;;;4.68;4.05;;;;;;;15.08;66.71;101544.97;5066863;28;20071;-85
2022/05/04 05:36:55;;;;;;;5.38;4.10;;;;;;;15.10;66.82;101559.09;5069773;28;20504;-85
2022/05/04 05:39:21;;;;;;;4.40;3.90;;;;;;;15.07;66.67;101549.34;5052225;28;20028;-84
2022/05/04 05:41:47;;;;;;;4.35;3.95;;;;;;;15.04;66.78;101548.28;5069224;28;20029;-84
2022/05/04 05:44:12;;;;;;;6.63;3.72;;;;;;;15.04;67.04;101546.53;5070236;28;20433;-84
2022/05/04 05:46:38;;;;;;;4.32;3.92;;;;;;;15.08;66.96;101558.13;5070217;28;20028;-84
2022/05/04 05:49:04;;;;;;;4.10;3.63;;;;;;;15.04;67.18;101546.53;5070785;28;20059;-86
2022/05/04 05:51:29;;;;;;;5.85;4.07;;;;;;;15.07;67.15;101561.59;5056746;28;20429;-86
2022/05/04 05:53:55;;;;;;;4.35;3.95;;;;;;;14.82;67.13;101507.78;5049235;28;20029;-86
2022/05/04 05:56:20;;;;;;;4.00;3.65;;;;;;;14.74;66.77;101495.09;5054307;28;20631;-84
2022/05/04 05:58:46;;;;;;;4.60;3.80;;;;;;;15.06;66.93;101549.25;5049463;28;20406;-84
2022/05/04 06:01:12;;;;;;;4.38;3.80;;;;;;;14.99;67.30;101545.44;5050071;28;20033;-84
2022/05/04 06:03:38;;;;;;;4.13;3.72;;;;;;;14.75;67.10;101503.06;5058203;28;20028;-84
2022/05/04 06:06:03;;;;;;;5.75;4.03;;;;;;;14.89;67.01;101515.97;5052999;28;20041;-84
2022/05/04 06:08:29;;;;;;;4.53;4.13;;;;;;;14.87;67.37;101539.56;5068843;28;20029;-84
2022/05/04 06:10:54;;;;;;;5.32;4.13;;;;;;;14.87;67.52;101536.94;5068629;28;20470;-85
2022/05/04 06:13:20;;;;;;;6.40;4.10;;;;;;;14.88;66.94;101537.81;5071341;28;20466;-85
2022/05/04 06:15:46;;;;;;;5.47;4.88;;;;;;;14.93;67.25;101555.66;5068576;28;20054;-86
2022/05/04 06:18:12;;;;;;;5.97;5.20;;;;;;;14.69;67.38;101515.91;5069477;28;20086;-86
2022/05/04 06:20:38;;;;;;;5.43;4.75;;;;;;;14.48;67.39;101485.88;5069737;28;20037;-86
2022/05/04 06:23:04;;;;;;;5.72;5.10;;;;;;;14.88;67.40;101549.28;5070299;28;20031;-86
2022/05/04 06:25:30;;;;;;;7.82;5.07;;;;;;;14.87;67.43;101544.81;5069161;28;20139;-86
2022/05/04 06:27:56;;;;;;;5.60;5.10;;;;;;;14.83;67.44;101540.25;5068774;28;20067;-87
2022/05/04 06:35:50;;;;;;;6.88;4.90;;;;;;;14.89;67.47;101558.06;5069019;28;20069;-87
2022/05/04 06:38:15;;;;;;;5.97;5.00;;;;;;;14.83;67.91;101558.66;5067618;28;20028;-86
2022/05/04 06:40:41;;;;;;;6.03;4.93;;;;;;;14.79;67.71;101544.44;5069380;28;20214;-88
2022/05/04 06:43:08;;;;;;;6.10;5.03;;;;;;;14.75;67.91;101538.94;5068312;28;20120;-88
2022/05/04 06:45:33;;;;;;;5.97;4.75;;;;;;;14.72;68.08;101536.19;5070807;28;20036;-88
2022/05/04 06:47:59;;;;;;;6.35;4.88;;;;;;;14.86;67.90;101566.72;5069800;28;20039;-88
2022/05/04 06:50:25;;;;;;;5.55;4.95;;;;;;;14.84;67.96;101560.47;5070135;28;20048;-88
2022/05/04 06:52:51;;;;;;;6.05;5.32;;;;;;;14.67;68.05;101533.34;5072738;28;20097;-88
2022/05/04 06:55:17;;;;;;;6.43;5.05;;;;;;;14.77;67.95;101547.81;5072339;28;20037;-87
2022/05/04 06:57:43;;;;;;;5.90;4.68;;;;;;;14.79;68.07;101556.69;5072940;28;20112;-88
2022/05/04 07:00:09;;;;;;;5.78;5.03;;;;;;;14.62;67.89;101514.69;5074679;28;20032;-87
2022/05/04 07:02:35;;;;;;;5.18;4.55;;;;;;;14.77;68.00;101550.44;5073324;28;20025;-87
2022/05/04 07:05:02;;;;;;;6.22;4.70;;;;;;;14.76;68.06;101557.44;5074352;28;20032;-86
2022/05/04 07:07:27;;;;;;;5.03;4.50;;;;;;;14.70;68.10;101540.47;5073238;28;20016;-87
2022/05/04 07:09:53;;;;;;;5.22;4.72;;;;;;;14.58;67.90;101523.28;5068999;28;20045;-87
2022/05/04 07:12:20;;;;;;;4.93;4.43;;;;;;;14.82;68.02;101560.38;5073142;28;20029;-87
2022/05/04 07:14:46;;;;;;;;;;;;;;;14.88;68.11;101577.28;5070260;28;20078;-88
2022/05/04 07:17:12;;;;;;;4.97;4.22;;;;;;;14.82;68.13;101565.63;5089388;28;20015;-87
2022/05/04 07:19:37;;;;;;;6.95;4.38;;;;;;;14.62;68.01;101537.44;5080981;28;20021;-86
2022/05/04 07:22:03;;;;;;;8.02;4.80;;;;;;;14.80;67.96;101564.66;5073441;28;20041;-87
2022/05/04 07:24:29;;;;;;;6.50;4.47;;;;;;;14.88;67.90;101579.91;5072755;28;20024;-88
2022/05/04 07:26:55;;;;;;;4.75;4.35;;;;;;;14.87;67.89;101576.38;5073828;28;20039;-87
2022/05/04 07:29:20;;;;;;;5.13;4.63;;;;;;;14.91;68.12;101582.69;5072708;28;20073;-88
2022/05/04 07:31:46;;;;;;;5.28;4.78;;;;;;;14.79;68.02;101564.56;5092016;28;20036;-87
2022/05/04 07:34:14;;;;;;;8.05;4.70;;;;;;;14.78;67.96;101558.44;5092798;28;20138;-87
2022/05/04 07:36:40;;;;;;;4.97;4.47;;;;;;;14.65;68.12;101540.25;5101435;28;20032;-88
2022/05/04 07:39:05;;;;;;;;;;;;;;;14.92;68.08;101590.69;5072000;28;20059;-89
2022/05/04 07:44:16;;;;;;;5.30;4.45;;;;;;;14.89;68.07;101592.25;5072779;28;20093;-87
2022/05/04 07:46:43;;;;;;;4.97;4.47;;;;;;;14.90;68.09;101588.78;5071740;28;20028;-87
2022/05/04 07:49:09;;;;;;;5.22;4.57;;;;;;;14.78;68.13;101575.94;5073340;28;20493;-87
2022/05/04 07:51:34;;;;;;;5.25;4.75;;;;;;;14.89;68.11;101586.97;5072121;28;20032;-88
2022/05/04 07:54:00;;;;;;;5.55;4.28;;;;;;;14.75;68.12;101571.44;5071962;28;20033;-86
2022/05/04 07:56:26;;;;;;;5.13;4.53;;;;;;;14.60;68.25;101552.25;5071886;28;20482;-87
2022/05/04 07:58:51;;;;;;;5.10;4.45;;;;;;;14.81;68.06;101570.81;5071758;28;20493;-87
2022/05/04 08:04:16;;;;;;;5.22;4.72;;;;;;;14.97;68.03;101597.06;5066837;28;20106;-86
2022/05/04 08:06:42;;;;;;;5.90;4.57;;;;;;;14.98;68.06;101603.22;5072824;28;20577;-87
2022/05/04 08:09:08;;;;;;;5.60;4.90;;;;;;;14.92;68.24;101595.00;5071510;28;20025;-86
2022/05/04 08:11:34;;;;;;;5.32;4.43;;;;;;;14.96;68.26;101604.84;5071022;28;20055;-86
2022/05/04 08:14:03;;;;;;;6.50;4.57;;;;;;;14.90;68.30;101597.59;5070509;28;20033;-86
2022/05/04 08:16:29;;;;;;;5.97;4.63;;;;;;;14.89;68.25;101584.34;5071521;28;20123;-86
2022/05/04 08:18:54;;;;;;;8.57;4.55;;;;;;;14.82;68.28;101575.25;5054880;28;20032;-87
2022/05/04 08:21:20;;;;;;;5.15;4.45;;;;;;;14.94;68.17;101588.09;5072308;28;20029;-87
2022/05/04 08:23:46;;;;;;;4.68;4.22;;;;;;;14.97;68.52;101591.78;5072377;28;20028;-86
2022/05/04 08:26:12;;;;;;;4.95;4.40;;;;;;;14.95;67.94;101584.66;5072012;28;20501;-87
2022/05/04 08:28:38;;;;;;;7.20;4.32;;;;;;;15.04;68.04;101596.50;5072787;28;20029;-87
2022/05/04 08:31:05;;;;;;;5.13;4.43;;;;;;;15.00;67.95;101586.66;5054850;28;20040;-87
2022/05/04 08:33:31;;;;;;;5.25;4.63;;;;;;;15.10;68.08;101608.19;5055448;28;20082;-87
2022/05/04 08:35:56;;;;;;;5.45;4.60;;;;;;;15.07;68.09;101603.69;5083381;28;20032;-86
2022/05/04 08:38:22;;;;;;;6.65;4.47;;;;;;;15.11;68.04;101607.34;5071051;28;20124;-87
2022/05/04 08:40:50;;;;;;;5.38;4.85;;;;;;;14.74;67.69;101538.06;5070446;28;20025;-87
2022/05/04 08:43:18;;;;;;;5.50;4.97;;;;;;;14.80;68.03;101553.25;5072434;28;20112;-86
2022/05/04 08:45:44;;;;;;;5.30;4.55;;;;;;;14.88;68.10;101558.88;5070614;28;20059;-87
2022/05/04 08:48:09;;;;;;;;;;;;;;;15.19;67.93;101617.41;5070289;28;20036;-87
2022/05/04 08:50:39;;;;;;;5.90;5.05;;;;;;;15.16;68.02;101611.13;5071946;28;19912;-87
2022/05/04 08:53:05;;;;;;;5.60;4.50;;;;;;;15.17;67.97;101618.16;5071400;28;20020;-87
2022/05/04 08:55:30;;;;;;;5.45;4.95;;;;;;;15.01;68.15;101588.50;5086549;28;20036;-87
2022/05/04 08:57:56;;;;;;;5.38;4.88;;;;;;;15.14;68.36;101605.78;5069759;28;20102;-87
2022/05/04 09:00:23;;;;;;;5.43;4.75;;;;;;;15.15;68.16;101606.66;5073068;28;20089;-87
2022/05/04 09:02:50;;;;;;;5.65;4.47;;;;;;;15.14;68.27;101599.63;5052787;28;20029;-87
2022/05/04 09:05:21;;;;;;;5.72;4.78;;;;;;;14.75;68.40;101533.69;5089353;28;20409;-86
2022/05/04 09:07:49;;;;;;;5.25;4.57;;;;;;;14.96;67.81;101562.78;5051402;28;20029;-87
2022/05/04 09:10:20;;;;;;;5.35;4.75;;;;;;;15.12;67.94;101589.00;5070389;28;20123;-87
2022/05/04 09:12:47;;;;;;;5.85;4.70;;;;;;;15.03;68.60;101580.69;5073233;28;20032;-87
2022/05/04 09:15:20;;;;;;;5.10;4.60;;;;;;;15.03;68.48;101581.56;5069861;28;20033;-86
2022/05/04 09:17:46;;;;;;;4.85;4.35;;;;;;;15.12;68.26;101598.63;5068903;28;20582;-86
2022/05/04 09:22:56;;;;;;;7.03;5.15;;;;;;;15.16;68.37;101600.59;5070416;28;20562;-86
2022/05/04 09:25:23;;;;;;;5.78;5.00;;;;;;;15.11;68.42;101595.09;5069791;28;20036;-86
2022/05/04 09:27:49;;;;;;;5.43;4.80;;;;;;;15.16;68.00;101595.34;5069342;28;20525;-87
2022/05/04 09:30:15;;;;;;;6.88;4.80;;;;;;;15.03;68.27;101573.69;5071655;28;20035;-86
2022/05/04 09:32:40;;;;;;;;;;;;;;;15.16;68.44;101598.84;5071457;28;20025;-86
2022/05/04 09:35:13;;;;;;;5.57;4.63;;;;;;;15.17;68.24;101592.75;5070510;28;19923;-86
2022/05/04 09:45:55;;;;;;;5.32;4.32;;;;;;;15.19;68.16;101591.09;5070585;28;20039;-86
2022/05/04 09:48:32;;;;;;;6.07;4.75;;;;;;;15.21;68.09;101596.44;5070179;28;20421;-86
2022/05/04 09:51:06;;;;;;;5.25;4.53;;;;;;;15.15;68.16;101585.63;5070425;28;20137;-86
2022/05/04 09:53:33;;;;;;;5.25;4.35;;;;;;;15.07;68.10;101567.75;5070224;28;20032;-87
2022/05/04 09:56:01;;;;;;;4.85;4.35;;;;;;;15.16;68.14;101569.91;5070262;28;20020;-87
2022/05/04 09:58:27;;;;;;;5.53;4.55;;;;;;;15.18;68.20;101578.78;5070234;28;20486;-87
2022/05/04 10:00:53;;;;;;;5.57;4.60;;;;;;;15.24;67.79;101576.44;5070431;28;20032;-88
2022/05/04 10:03:21;;;;;;;5.03;4.53;;;;;;;15.22;68.15;101577.22;5069711;28;20033;-87
2022/05/04 10:05:47;;;;;;;6.80;4.43;;;;;;;15.25;68.26;101579.97;5068682;28;20021;-86
2022/05/04 10:08:13;;;;;;;;;;;;;;;15.27;68.10;101587.09;5069447;28;20028;-87
2022/05/04 10:10:39;;;;;;;5.75;4.57;;;;;;;15.15;68.23;101565.47;5068725;28;19923;-87
2022/05/04 10:13:09;;;;;;;5.20;4.70;;;;;;;15.26;68.16;101577.44;5069200;28;20032;-87
2022/05/04 10:15:36;;;;;;;5.25;4.75;;;;;;;15.22;68.11;101569.31;5068882;28;20031;-86
2022/05/04 10:18:07;;;;;;;5.57;4.60;;;;;;;15.01;68.12;101532.34;5052112;28;20123;-87
2022/05/04 10:20:47;;;;;;;5.80;4.45;;;;;;;15.28;67.91;101574.84;5068820;28;20158;-88
2022/05/04 10:23:17;;;;;;;4.60;4.20;;;;;;;15.30;67.95;101572.28;5068832;28;20025;-87
2022/05/04 10:25:43;;;;;;;5.72;4.60;;;;;;;15.31;68.00;101576.75;5069349;28;20524;-87
2022/05/04 10:28:12;;;;;;;4.85;4.35;;;;;;;15.23;67.88;101557.94;5072716;28;20077;-86
2022/05/04 10:30:57;;;;;;;4.72;4.22;;;;;;;15.32;67.98;101565.38;5056688;28;20429;-87
2022/05/04 10:33:34;;;;;;;4.55;3.80;;;;;;;15.33;67.71;101568.09;5073326;28;20020;-87
2022/05/04 10:36:26;;;;;;;5.70;4.50;;;;;;;15.37;67.52;101571.78;5073309;28;20543;-86
2022/05/04 10:38:56;;;;;;;6.03;4.28;;;;;;;15.29;67.90;101557.34;5055997;28;20033;-87
2022/05/04 10:41:35;;;;;;;4.82;4.03;;;;;;;15.38;67.81;101563.94;5073113;28;20029;-86
2022/05/04 10:44:01;;;;;;;5.93;4.00;;;;;;;15.35;67.77;101555.00;5073461;28;20524;-87
2022/05/04 10:46:30;;;;;;;5.93;4.20;;;;;;;15.35;67.53;101558.53;5073711;28;20029;-87
2022/05/04 10:49:03;;;;;;;5.55;4.30;;;;;;;15.44;67.47;101564.22;5073781;28;20501;-85
2022/05/04 10:51:30;;;;;;;6.32;4.10;;;;;;;15.49;66.82;101548.63;5083051;28;20025;-86
2022/05/04 10:54:14;;;;;;;5.38;4.13;;;;;;;15.59;66.64;101556.13;5075019;28;20032;-86
2022/05/04 10:56:46;;;;;;;5.05;4.10;;;;;;;15.68;66.44;101556.59;5073758;28;20051;-86
2022/05/04 10:59:19;;;;;;;4.60;4.10;;;;;;;15.71;66.98;101573.34;5073441;28;20487;-86
2022/05/04 11:01:44;;;;;;;5.35;3.88;;;;;;;15.62;67.09;101553.66;5073667;28;20032;-87
2022/05/04 11:04:10;;;;;;;6.38;3.88;;;;;;;15.74;66.86;101569.13;5074647;28;20056;-86
2022/05/04 11:06:37;;;;;;;4.22;3.80;;;;;;;15.70;67.01;101559.25;5074295;28;20032;-86
2022/05/04 11:09:08;;;;;;;6.40;4.30;;;;;;;15.73;67.15;101556.81;5073133;28;20029;-87
2022/05/04 11:11:35;;;;;;;5.03;3.88;;;;;;;15.67;67.16;101530.16;5072870;28;20509;-86
2022/05/04 11:14:02;;;;;;;4.30;3.90;;;;;;;15.45;66.98;101497.59;5055822;28;20394;-86
2022/05/04 11:16:31;;;;;;;4.25;3.85;;;;;;;15.73;67.03;101541.00;5072883;28;20082;-86
2022/05/04 11:19:01;;;;;;;5.85;4.10;;;;;;;15.84;66.90;101554.66;5072671;28;20024;-85
2022/05/04 11:21:28;;;;;;;6.88;4.10;;;;;;;15.66;67.34;101524.00;5072787;28;20485;-86
2022/05/04 11:23:59;;;;;;;4.65;3.65;;;;;;;15.76;68.00;101538.50;5072875;28;20486;-86
2022/05/04 11:26:26;;;;;;;5.10;3.42;;;;;;;15.79;67.72;101536.03;5072721;28;20383;-86
2022/05/04 11:28:53;;;;;;;6.30;3.80;;;;;;;15.88;67.25;101556.59;5072821;28;20062;-85
2022/05/04 11:31:21;;;;;;;4.93;3.78;;;;;;;15.72;67.85;101515.50;5072335;28;20103;-86
2022/05/04 11:33:48;;;;;;;5.90;3.53;;;;;;;15.86;67.40;101535.47;5072479;28;20459;-87
2022/05/04 11:36:18;;;;;;;6.70;3.55;;;;;;;15.96;67.17;101546.41;5072532;28;20412;-87
2022/05/04 11:38:45;;;;;;;5.88;3.72;;;;;;;15.97;66.66;101549.09;5072340;28;20055;-86
2022/05/04 11:41:11;;;;;;;5.03;4.05;;;;;;;15.59;66.83;101486.78;5072229;28;20108;-86
2022/05/04 11:43:37;;;;;;;5.30;3.97;;;;;;;16.00;66.98;101556.25;5068800;28;20107;-86
2022/05/04 11:46:09;;;;;;;4.60;3.50;;;;;;;15.83;66.85;101524.81;5050526;28;20483;-85
2022/05/04 11:48:55;;;;;;;5.15;3.67;;;;;;;15.99;67.05;101557.97;5053334;28;20511;-86
2022/05/04 11:51:20;;;;;;;4.07;3.15;;;;;;;15.99;67.05;101541.28;5053303;28;20514;-87
2022/05/04 11:53:46;;;;;;;4.18;3.72;;;;;;;15.84;67.17;101517.78;5051135;28;20051;-86
2022/05/04 11:56:12;;;;;;;4.70;3.70;;;;;;;16.05;67.37;101549.47;5050582;28;20071;-87